createdAt,value
2023-02-15T00:01:41.161Z,50.17
2023-02-15T00:04:10.814Z,46.33
2023-02-15T00:06:39.889Z,47.92
2023-02-15T00:09:08.946Z,49.72
2023-02-15T00:11:50.804Z,47.70
2023-02-15T00:14:23.635Z,50.30
2023-02-15T00:16:53.491Z,49.30
2023-02-15T00:19:23.594Z,48.78
2023-02-15T00:21:52.653Z,49.55
2023-02-15T00:24:21.871Z,48.95
2023-02-15T00:26:51.422Z,49.20
2023-02-15T00:29:22.856Z,49.70
2023-02-15T00:31:51.745Z,48.67
2023-02-15T00:34:21.858Z,50.95
2023-02-15T00:36:51.573Z,47.08
2023-02-15T00:39:21.224Z,43.63
2023-02-15T00:41:50.191Z,48.88
2023-02-15T00:44:21.805Z,50.67
2023-02-15T00:46:50.377Z,52.17
2023-02-15T00:49:19.391Z,49.10
2023-02-15T00:51:48.352Z,50.15
2023-02-15T00:54:17.470Z,51.65
2023-02-15T00:56:46.499Z,47.90
2023-02-15T00:59:15.678Z,48.42
2023-02-15T01:01:45.690Z,49.30
2023-02-15T01:04:15.254Z,49.30
2023-02-15T01:06:44.289Z,48.25
2023-02-15T01:09:14.731Z,47.28
2023-02-15T01:11:43.782Z,45.80
2023-02-15T01:14:14.429Z,46.30
2023-02-15T01:16:45.434Z,48.53
2023-02-15T01:19:14.856Z,48.83
2023-02-15T01:21:43.850Z,49.30
2023-02-15T01:24:15.154Z,48.33
2023-02-15T01:26:44.947Z,46.22
2023-02-15T01:29:14.079Z,47.83
2023-02-15T01:31:42.956Z,47.17
2023-02-15T01:34:13.543Z,47.67
2023-02-15T01:36:42.618Z,46.28
2023-02-15T01:39:11.612Z,46.63
2023-02-15T01:41:40.701Z,47.05
2023-02-15T01:44:42.858Z,48.80
2023-02-15T01:47:12.091Z,48.15
2023-02-15T01:49:42.756Z,49.42
2023-02-15T01:52:13.194Z,46.25
2023-02-15T01:54:43.960Z,44.92
2023-02-15T01:57:15.004Z,47.80
2023-02-15T01:59:45.899Z,48.80
2023-02-15T02:02:16.678Z,49.33
2023-02-15T02:04:50.003Z,47.63
2023-02-15T02:07:23.168Z,43.92
2023-02-15T02:09:52.681Z,45.25
2023-02-15T02:12:26.612Z,46.50
2023-02-15T02:14:56.644Z,47.70
2023-02-15T02:17:33.338Z,44.38
2023-02-15T02:20:29.203Z,47.65
2023-02-15T02:23:22.228Z,48.10
2023-02-15T02:26:27.717Z,47.13
2023-02-15T02:29:20.898Z,44.83
2023-02-15T02:32:29.311Z,46.67
2023-02-15T02:35:02.904Z,45.25
2023-02-15T02:37:37.522Z,43.72
2023-02-15T02:40:10.711Z,44.80
2023-02-15T02:42:42.268Z,46.30
2023-02-15T02:45:15.032Z,46.72
2023-02-15T02:47:47.833Z,46.75
2023-02-15T02:50:20.847Z,44.20
2023-02-15T02:52:51.147Z,45.83
2023-02-15T02:55:23.399Z,47.83
2023-02-15T02:57:56.126Z,49.65
2023-02-15T03:00:27.177Z,45.05
2023-02-15T03:02:59.683Z,45.08
2023-02-15T03:05:32.203Z,44.78
2023-02-15T03:08:02.208Z,43.85
2023-02-15T03:10:31.864Z,44.65
2023-02-15T03:13:00.984Z,45.22
2023-02-15T03:15:53.419Z,46.22
2023-02-15T03:18:25.392Z,47.30
2023-02-15T03:20:57.595Z,43.53
2023-02-15T03:23:28.374Z,44.58
2023-02-15T03:26:01.833Z,43.67
2023-02-15T03:28:38.670Z,43.55
2023-02-15T03:31:09.714Z,41.05
2023-02-15T03:33:42.839Z,41.17
2023-02-15T03:36:20.319Z,42.42
2023-02-15T03:38:54.327Z,39.17
2023-02-15T03:41:27.629Z,43.00
2023-02-15T03:43:59.231Z,40.45
2023-02-15T03:46:32.396Z,39.55
2023-02-15T03:49:04.327Z,34.13
2023-02-15T03:51:39.482Z,36.55
2023-02-15T03:54:11.113Z,30.83
2023-02-15T03:56:41.931Z,30.52
2023-02-15T03:59:28.169Z,30.38
2023-02-15T04:02:04.100Z,31.17
2023-02-15T04:04:36.327Z,28.58
2023-02-15T04:07:08.675Z,29.70
2023-02-15T04:09:55.109Z,25.70
2023-02-15T04:12:24.369Z,26.58
2023-02-15T04:15:10.703Z,27.90
2023-02-15T04:17:39.963Z,27.23
2023-02-15T04:20:28.355Z,28.02
2023-02-15T04:23:15.832Z,27.48
2023-02-15T04:25:44.947Z,30.27
2023-02-15T04:28:13.973Z,29.98
2023-02-15T04:30:43.068Z,30.73
2023-02-15T04:33:12.093Z,30.23
2023-02-15T04:35:41.184Z,31.13
2023-02-15T04:38:11.970Z,30.63
2023-02-15T04:40:40.783Z,29.33
2023-02-15T04:43:09.811Z,31.85
2023-02-15T04:45:38.975Z,33.08
2023-02-15T04:48:08.022Z,30.83
2023-02-15T04:50:37.187Z,31.35
2023-02-15T04:53:06.269Z,23.30
2023-02-15T04:55:36.651Z,30.85
2023-02-15T04:58:05.884Z,28.52
2023-02-15T05:00:35.005Z,26.90
2023-02-15T05:03:04.226Z,31.52
2023-02-15T05:05:33.427Z,26.55
2023-02-15T05:08:02.720Z,28.43
2023-02-15T05:10:31.422Z,28.98
2023-02-15T05:13:02.152Z,31.52
2023-02-15T05:15:31.278Z,30.58
2023-02-15T05:18:00.346Z,32.83
2023-02-15T05:20:29.697Z,32.95
2023-02-15T05:22:58.731Z,28.02
2023-02-15T05:25:44.983Z,31.92
2023-02-15T05:28:23.728Z,29.48
2023-02-15T05:30:54.192Z,29.83
2023-02-15T05:33:23.367Z,27.80
2023-02-15T05:35:52.481Z,28.13
2023-02-15T05:38:21.641Z,30.95
2023-02-15T05:40:50.345Z,28.50
2023-02-15T05:43:21.294Z,30.63
2023-02-15T05:45:51.044Z,31.23
2023-02-15T05:48:21.269Z,31.02
2023-02-15T05:50:59.778Z,29.20
2023-02-15T05:53:29.434Z,31.77
2023-02-15T05:56:00.977Z,33.28
2023-02-15T05:58:32.828Z,32.15
2023-02-15T06:01:02.213Z,29.98
2023-02-15T06:03:31.400Z,33.08
2023-02-15T06:06:00.886Z,31.75
2023-02-15T06:08:30.021Z,34.53
2023-02-15T06:10:59.114Z,35.55
2023-02-15T06:13:27.823Z,35.05
2023-02-15T06:15:58.466Z,29.67
2023-02-15T06:18:27.740Z,29.77
2023-02-15T06:20:56.905Z,23.67
2023-02-15T06:23:26.203Z,27.52
2023-02-15T06:25:54.861Z,31.83
2023-02-15T06:28:23.976Z,29.67
2023-02-15T06:30:53.169Z,32.13
2023-02-15T06:33:24.185Z,31.52
2023-02-15T06:35:53.326Z,33.38
2023-02-15T06:38:24.611Z,31.67
2023-02-15T06:40:53.519Z,31.70
2023-02-15T06:43:22.522Z,34.35
2023-02-15T06:45:51.626Z,30.60
2023-02-15T06:48:20.662Z,30.65
2023-02-15T06:50:51.479Z,28.27
2023-02-15T06:53:20.624Z,30.25
2023-02-15T06:55:49.365Z,31.13
2023-02-15T06:58:18.565Z,31.15
2023-02-15T07:00:47.773Z,30.58
2023-02-15T07:03:17.117Z,30.63
2023-02-15T07:05:46.689Z,32.40
2023-02-15T07:08:17.355Z,31.90
2023-02-15T07:13:14.406Z,20.80
2023-02-15T07:15:43.617Z,31.75
2023-02-15T07:18:12.961Z,32.00
2023-02-15T07:20:42.786Z,33.73
2023-02-15T07:23:11.826Z,30.55
2023-02-15T07:25:42.100Z,31.67
2023-02-15T07:28:11.497Z,30.42
2023-02-15T07:30:41.346Z,24.07
2023-02-15T07:33:25.659Z,28.30
2023-02-15T07:35:56.036Z,29.25
2023-02-15T07:41:00.449Z,26.67
2023-02-15T07:43:30.730Z,26.27
2023-02-15T07:46:02.251Z,27.92
2023-02-15T07:48:31.656Z,27.15
2023-02-15T07:51:01.745Z,29.58
2023-02-15T07:56:03.133Z,24.60
2023-02-15T07:58:45.910Z,26.40
2023-02-15T08:01:15.302Z,24.92
2023-02-15T08:03:45.370Z,14.13
2023-02-15T08:06:15.122Z,25.75
2023-02-15T08:08:44.736Z,26.45
2023-02-15T08:11:37.642Z,27.17
2023-02-15T08:14:08.344Z,26.30
2023-02-15T08:16:39.356Z,26.85
2023-02-15T08:19:10.326Z,24.05
2023-02-15T08:21:41.862Z,22.15
2023-02-15T08:24:12.142Z,22.30
2023-02-15T08:26:43.968Z,19.90
2023-02-15T08:29:13.853Z,22.42
2023-02-15T08:31:43.048Z,21.17
2023-02-15T08:34:13.723Z,20.73
2023-02-15T08:36:42.795Z,20.15
2023-02-15T08:39:11.912Z,23.90
2023-02-15T08:41:44.374Z,22.75
2023-02-15T08:44:13.653Z,23.63
2023-02-15T08:46:43.700Z,24.40
2023-02-15T08:49:15.123Z,25.20
2023-02-15T08:51:44.809Z,25.42
2023-02-15T08:54:16.623Z,16.20
2023-02-15T08:56:47.896Z,22.25
2023-02-15T08:59:18.476Z,21.60
2023-02-15T09:01:49.630Z,22.90
2023-02-15T09:04:19.114Z,22.83
2023-02-15T09:06:50.356Z,23.42
2023-02-15T09:09:20.808Z,24.02
2023-02-15T09:11:58.711Z,24.77
2023-02-15T09:14:29.431Z,25.52
2023-02-15T09:16:58.262Z,26.67
2023-02-15T09:19:27.760Z,17.73
2023-02-15T09:21:56.950Z,25.98
2023-02-15T09:24:26.234Z,22.05
2023-02-15T09:26:56.833Z,26.52
2023-02-15T09:29:25.979Z,25.48
2023-02-15T09:31:54.833Z,26.42
2023-02-15T09:34:24.844Z,23.98
2023-02-15T09:36:54.572Z,25.98
2023-02-15T09:39:25.784Z,27.27
2023-02-15T09:42:17.414Z,29.33
2023-02-15T09:45:01.749Z,26.75
2023-02-15T09:47:45.504Z,21.20
2023-02-15T09:50:19.526Z,27.67
2023-02-15T09:53:00.285Z,27.13
2023-02-15T09:55:44.539Z,25.92
2023-02-15T09:58:19.774Z,25.50
2023-02-15T10:00:53.776Z,17.23
2023-02-15T10:03:32.860Z,24.77
2023-02-15T10:06:14.816Z,24.42
2023-02-15T10:09:09.419Z,21.23
2023-02-15T10:11:55.045Z,26.92
2023-02-15T10:15:03.690Z,19.67
2023-02-15T10:17:44.201Z,20.90
2023-02-15T10:20:22.476Z,19.83
2023-02-15T10:23:03.178Z,21.58
2023-02-15T10:25:41.950Z,23.02
2023-02-15T10:28:19.277Z,23.13
2023-02-15T10:30:52.518Z,24.77
2023-02-15T10:33:37.572Z,23.00
2023-02-15T10:36:14.762Z,21.10
2023-02-15T10:38:46.175Z,23.02
2023-02-15T10:41:25.393Z,20.65
2023-02-15T10:44:09.547Z,23.52
2023-02-15T10:47:02.084Z,19.35
2023-02-15T10:49:47.941Z,22.98
2023-02-15T10:52:25.624Z,23.52
2023-02-15T10:54:59.382Z,24.17
2023-02-15T10:57:35.048Z,24.80
2023-02-15T11:00:12.372Z,20.98
2023-02-15T11:03:17.243Z,24.27
2023-02-15T11:05:56.798Z,25.73
2023-02-15T11:08:27.042Z,25.50
2023-02-15T11:10:58.980Z,18.02
2023-02-15T11:13:35.016Z,23.45
2023-02-15T11:16:07.231Z,26.50
2023-02-15T11:18:39.293Z,21.42
2023-02-15T11:21:13.367Z,26.88
2023-02-15T11:23:45.704Z,27.15
2023-02-15T11:26:18.538Z,29.17
2023-02-15T11:28:52.207Z,16.58
2023-02-15T11:31:23.999Z,15.77
2023-02-15T11:33:55.616Z,22.00
2023-02-15T11:36:28.952Z,23.23
2023-02-15T11:39:00.766Z,27.17
2023-02-15T11:41:32.618Z,29.33
2023-02-15T11:44:07.459Z,29.85
2023-02-15T11:46:36.438Z,32.25
2023-02-15T11:49:09.883Z,29.85
2023-02-15T11:51:40.358Z,32.92
2023-02-15T11:54:11.160Z,29.90
2023-02-15T11:56:40.146Z,30.05
2023-02-15T11:59:13.268Z,36.88
2023-02-15T12:01:45.141Z,35.15
2023-02-15T12:04:20.876Z,32.58
2023-02-15T12:07:02.175Z,36.78
2023-02-15T12:09:37.191Z,39.28
2023-02-15T12:12:26.881Z,37.47
2023-02-15T12:14:57.909Z,31.20
2023-02-15T12:17:29.266Z,33.90
2023-02-15T12:19:59.487Z,33.00
2023-02-15T12:22:32.726Z,35.67
2023-02-15T12:25:04.303Z,36.75
2023-02-15T12:27:35.420Z,37.65
2023-02-15T12:30:08.434Z,29.75
2023-02-15T12:32:38.704Z,33.85
2023-02-15T12:35:11.898Z,34.95
2023-02-15T12:37:42.302Z,32.10
2023-02-15T12:40:23.023Z,36.13
2023-02-15T12:42:52.129Z,38.15
2023-02-15T12:45:27.599Z,24.55
2023-02-15T12:48:19.130Z,25.90
2023-02-15T12:50:54.800Z,30.10
2023-02-15T12:53:33.665Z,27.58
2023-02-15T12:56:04.440Z,25.80
2023-02-15T13:01:13.802Z,35.28
2023-02-15T13:03:59.944Z,37.78
2023-02-15T13:06:29.980Z,17.67
2023-02-15T13:09:02.033Z,22.05
2023-02-15T13:11:35.383Z,34.83
2023-02-15T13:14:06.166Z,31.08
2023-02-15T13:19:06.973Z,25.42
2023-02-15T13:21:39.704Z,33.58
2023-02-15T13:24:18.361Z,37.45
2023-02-15T13:26:48.401Z,34.28
2023-02-15T13:29:21.205Z,25.92
2023-02-15T13:31:51.139Z,32.00
2023-02-15T13:36:54.381Z,36.78
2023-02-15T13:39:31.470Z,37.95
2023-02-15T13:42:03.673Z,38.50
2023-02-15T13:44:50.852Z,40.30
2023-02-15T13:47:25.053Z,25.30
2023-02-15T13:50:05.649Z,35.63
2023-02-15T13:52:38.881Z,24.65
2023-02-15T13:55:27.176Z,24.67
2023-02-15T13:58:26.357Z,34.30
2023-02-15T14:01:02.463Z,31.27
2023-02-15T14:03:52.020Z,29.77
2023-02-15T14:06:36.740Z,37.10
2023-02-15T14:09:14.532Z,38.40
2023-02-15T14:11:49.627Z,37.25
2023-02-15T14:14:32.022Z,38.72
2023-02-15T14:17:07.488Z,26.88
2023-02-15T14:19:40.502Z,37.92
2023-02-15T14:22:15.038Z,25.48
2023-02-15T14:24:47.561Z,36.97
2023-02-15T14:27:24.606Z,43.55
2023-02-15T14:29:56.127Z,41.10
2023-02-15T14:32:30.163Z,26.90
2023-02-15T14:35:00.051Z,40.75
2023-02-15T14:40:22.798Z,30.23
2023-02-15T14:42:56.781Z,21.90
2023-02-15T14:45:34.321Z,22.95
2023-02-15T14:48:10.612Z,30.33
2023-02-15T14:50:47.387Z,36.03
2023-02-15T14:53:27.629Z,38.22
2023-02-15T14:56:09.681Z,42.58
2023-02-15T14:58:41.214Z,37.13
2023-02-15T15:01:12.108Z,37.40
2023-02-15T15:03:46.460Z,40.97
2023-02-15T15:06:28.694Z,37.42
2023-02-15T15:09:02.084Z,41.78
2023-02-15T15:11:44.797Z,24.60
2023-02-15T15:14:39.520Z,37.25
2023-02-15T15:17:09.632Z,36.38
2023-02-15T15:20:00.731Z,31.42
2023-02-15T15:22:30.625Z,36.28
2023-02-15T15:25:00.832Z,37.53
2023-02-15T15:31:02.304Z,36.97
2023-02-15T15:33:56.037Z,36.03
2023-02-15T15:36:43.927Z,35.30
2023-02-15T15:39:28.774Z,28.13
2023-02-15T15:42:04.247Z,26.17
2023-02-15T15:45:17.269Z,31.10
2023-02-15T15:48:07.324Z,31.90
2023-02-15T15:50:41.722Z,25.83
2023-02-15T15:53:20.070Z,28.35
2023-02-15T15:55:50.156Z,32.15
2023-02-15T15:58:20.629Z,28.52
2023-02-15T16:00:52.582Z,29.92
2023-02-15T16:03:24.406Z,29.95
2023-02-15T16:05:56.737Z,29.90
2023-02-15T16:08:31.311Z,31.50
2023-02-15T16:11:00.793Z,25.55
2023-02-15T16:13:30.077Z,34.95
2023-02-15T16:15:59.392Z,26.50
2023-02-15T16:18:29.799Z,19.33
2023-02-15T16:23:55.672Z,32.13
2023-02-15T16:26:41.853Z,19.67
2023-02-15T16:29:17.775Z,34.15
2023-02-15T16:32:00.982Z,38.83
2023-02-15T16:34:33.533Z,36.38
2023-02-15T16:37:18.222Z,34.75
2023-02-15T16:39:49.134Z,38.95
2023-02-15T16:42:19.387Z,22.50
2023-02-15T16:47:20.144Z,28.23
2023-02-15T16:49:50.808Z,35.88
2023-02-15T16:52:24.399Z,37.17
2023-02-15T16:54:57.295Z,27.20
2023-02-15T16:57:29.987Z,23.20
2023-02-15T17:00:03.322Z,23.15
2023-02-15T17:02:55.003Z,32.38
2023-02-15T17:05:24.533Z,18.77
2023-02-15T17:08:13.632Z,36.27
2023-02-15T17:10:46.723Z,28.45
2023-02-15T17:13:17.044Z,20.77
2023-02-15T17:18:18.956Z,22.58
2023-02-15T17:20:48.995Z,27.27
2023-02-15T17:23:25.614Z,31.63
2023-02-15T17:25:54.690Z,21.05
2023-02-15T17:28:26.352Z,24.85
2023-02-15T17:30:56.257Z,29.33
2023-02-15T17:33:30.104Z,30.55
2023-02-15T17:36:11.411Z,40.08
2023-02-15T17:38:43.419Z,40.30
2023-02-15T17:41:12.584Z,19.27
2023-02-15T17:43:43.202Z,36.38
2023-02-15T17:46:13.824Z,36.67
2023-02-15T17:48:44.044Z,37.85
2023-02-15T17:51:14.876Z,36.90
2023-02-15T17:54:05.889Z,38.97
2023-02-15T17:56:34.244Z,21.35
2023-02-15T17:59:07.749Z,19.30
2023-02-15T18:01:54.560Z,31.38
2023-02-15T18:04:41.428Z,37.20
2023-02-15T18:07:28.545Z,33.28
2023-02-15T18:10:16.289Z,26.23
2023-02-15T18:12:45.527Z,20.58
2023-02-15T18:15:14.804Z,32.00
2023-02-15T18:17:45.280Z,35.78
2023-02-15T18:20:20.180Z,35.53
2023-02-15T18:22:49.099Z,38.03
2023-02-15T18:25:24.318Z,28.00
2023-02-15T18:27:55.223Z,39.85
2023-02-15T18:30:26.888Z,37.20
2023-02-15T18:32:58.213Z,36.95
2023-02-15T18:35:28.895Z,19.48
2023-02-15T18:37:57.901Z,41.80
2023-02-15T18:40:29.672Z,39.20
2023-02-15T18:42:59.154Z,29.75
2023-02-15T18:45:33.076Z,33.72
2023-02-15T18:48:02.914Z,43.28
2023-02-15T18:50:35.394Z,40.97
2023-02-15T18:53:05.528Z,40.80
2023-02-15T18:55:36.821Z,37.03
2023-02-15T18:58:05.965Z,40.90
2023-02-15T19:00:36.382Z,39.00
2023-02-15T19:03:05.812Z,37.85
2023-02-15T19:05:35.551Z,41.23
2023-02-15T19:08:05.168Z,36.60
2023-02-15T19:10:36.332Z,39.95
2023-02-15T19:13:05.371Z,42.25
2023-02-15T19:15:34.612Z,40.65
2023-02-15T19:18:03.706Z,43.47
2023-02-15T19:20:34.494Z,42.42
2023-02-15T19:23:03.732Z,39.85
2023-02-15T19:25:37.701Z,43.15
2023-02-15T19:28:15.802Z,41.15
2023-02-15T19:30:44.970Z,41.30
2023-02-15T19:33:18.407Z,41.15
2023-02-15T19:35:49.085Z,38.45
2023-02-15T19:38:20.532Z,44.63
2023-02-15T19:40:49.528Z,40.92
2023-02-15T19:43:26.311Z,42.63
2023-02-15T19:45:55.763Z,41.08
2023-02-15T19:48:25.033Z,45.53
2023-02-15T19:50:55.522Z,43.08
2023-02-15T19:53:25.762Z,38.97
2023-02-15T19:55:55.056Z,46.15
2023-02-15T19:58:25.637Z,38.05
2023-02-15T20:00:54.871Z,46.70
2023-02-15T20:03:24.083Z,43.47
2023-02-15T20:05:53.432Z,37.08
2023-02-15T20:08:23.759Z,44.80
2023-02-15T20:10:52.552Z,49.63
2023-02-15T20:13:22.180Z,28.40
2023-02-15T20:15:53.324Z,48.42
2023-02-15T20:18:22.878Z,46.65
2023-02-15T20:20:53.347Z,50.40
2023-02-15T20:23:25.269Z,51.47
2023-02-15T20:25:54.452Z,48.97
2023-02-15T20:28:27.240Z,32.35
2023-02-15T20:30:57.983Z,43.60
2023-02-15T20:33:27.168Z,35.97
2023-02-15T20:35:56.416Z,47.88
2023-02-15T20:38:28.308Z,43.22
2023-02-15T20:41:15.262Z,41.47
2023-02-15T20:43:44.580Z,46.80
2023-02-15T20:46:15.180Z,51.23
2023-02-15T20:48:44.300Z,49.92
2023-02-15T20:51:17.563Z,51.03
2023-02-15T20:53:47.220Z,52.28
2023-02-15T20:56:19.876Z,49.80
2023-02-15T20:58:48.724Z,36.40
2023-02-15T21:01:20.380Z,46.67
2023-02-15T21:03:53.797Z,46.50
2023-02-15T21:06:22.966Z,47.33
2023-02-15T21:08:52.075Z,49.17
2023-02-15T21:11:22.050Z,47.13
2023-02-15T21:13:51.814Z,47.97
2023-02-15T21:16:22.486Z,52.10
2023-02-15T21:18:51.638Z,48.42
2023-02-15T21:21:25.132Z,49.80
2023-02-15T21:23:54.722Z,50.85
2023-02-15T21:26:24.175Z,49.88
2023-02-15T21:28:53.122Z,53.88
2023-02-15T21:31:25.696Z,40.73
2023-02-15T21:33:55.019Z,55.75
2023-02-15T21:36:26.893Z,54.92
2023-02-15T21:38:56.180Z,54.63
2023-02-15T21:41:43.010Z,57.40
2023-02-15T21:44:34.796Z,58.85
2023-02-15T21:47:23.055Z,53.22
2023-02-15T21:49:53.055Z,52.38
2023-02-15T21:52:22.958Z,53.40
2023-02-15T21:54:51.999Z,55.33
2023-02-15T21:57:22.368Z,56.88
2023-02-15T21:59:51.588Z,61.13
2023-02-15T22:02:32.491Z,58.63
2023-02-15T22:05:01.457Z,53.75
2023-02-15T22:07:30.438Z,60.47
2023-02-15T22:09:59.690Z,53.50
2023-02-15T22:12:28.699Z,56.85
2023-02-15T22:14:57.760Z,55.47
2023-02-15T22:17:29.175Z,57.22
2023-02-15T22:20:00.955Z,48.53
2023-02-15T22:22:30.922Z,50.80
2023-02-15T22:24:59.975Z,44.80
2023-02-15T22:27:31.675Z,47.28
2023-02-15T22:30:00.895Z,52.33
2023-02-15T22:32:30.033Z,38.00
2023-02-15T22:35:00.598Z,56.30
2023-02-15T22:39:57.993Z,43.97
2023-02-15T22:42:28.794Z,50.88
2023-02-15T22:44:58.744Z,58.15
2023-02-15T22:47:29.091Z,60.53
2023-02-15T22:49:57.714Z,62.90
2023-02-15T22:52:28.196Z,53.28
2023-02-15T22:54:57.208Z,55.92
2023-02-15T22:57:30.852Z,46.20
2023-02-15T23:00:01.546Z,67.20
2023-02-15T23:02:30.811Z,51.92
2023-02-15T23:04:59.763Z,66.43
2023-02-15T23:07:30.382Z,70.00
2023-02-15T23:09:59.460Z,64.55
2023-02-15T23:12:50.742Z,67.95
2023-02-15T23:15:19.893Z,70.47
2023-02-15T23:17:48.937Z,67.28
2023-02-15T23:20:18.059Z,77.95
2023-02-15T23:22:48.189Z,73.35
2023-02-15T23:25:21.908Z,72.93
2023-02-15T23:27:59.793Z,79.82
2023-02-15T23:30:29.002Z,78.80
2023-02-15T23:32:58.686Z,83.38
2023-02-15T23:35:27.722Z,71.55
2023-02-15T23:37:57.813Z,73.43
2023-02-15T23:40:44.435Z,63.17
2023-02-15T23:43:21.052Z,62.55
2023-02-15T23:45:50.088Z,62.67
2023-02-15T23:48:33.665Z,64.57
2023-02-15T23:51:03.800Z,59.80
2023-02-15T23:53:34.900Z,54.33
2023-02-15T23:56:04.090Z,82.85
2023-02-15T23:58:37.823Z,82.65
